createdAt,value
2022-12-18T00:00:32.895Z,39.60
2022-12-18T00:03:21.831Z,37.30
2022-12-18T00:05:54.401Z,34.60
2022-12-18T00:08:23.087Z,38.90
2022-12-18T00:10:52.177Z,41.90
2022-12-18T00:13:21.675Z,39.60
2022-12-18T00:15:50.359Z,41.20
2022-12-18T00:18:20.648Z,41.20
2022-12-18T00:20:49.379Z,36.10
2022-12-18T00:23:17.594Z,36.30
2022-12-18T00:25:45.824Z,37.10
2022-12-18T00:28:14.830Z,41.60
2022-12-18T00:30:44.224Z,40.40
2022-12-18T00:33:13.375Z,35.60
2022-12-18T00:35:43.628Z,40.50
2022-12-18T00:38:15.098Z,34.40
2022-12-18T00:44:17.197Z,29.80
2022-12-18T00:46:47.256Z,32.80
2022-12-18T00:49:22.030Z,30.70
2022-12-18T00:51:51.742Z,32.60
2022-12-18T00:54:23.180Z,38.30
2022-12-18T00:56:51.770Z,45.00
2022-12-18T00:59:20.254Z,41.60
2022-12-18T01:01:48.820Z,46.10
2022-12-18T01:04:17.101Z,46.30
2022-12-18T01:06:47.138Z,43.60
2022-12-18T01:09:15.787Z,38.30
2022-12-18T01:11:43.985Z,44.10
2022-12-18T01:14:12.890Z,42.20
2022-12-18T01:16:41.545Z,45.60
2022-12-18T01:19:09.944Z,38.20
2022-12-18T01:21:38.219Z,40.90
2022-12-18T01:24:07.415Z,38.10
2022-12-18T01:26:35.693Z,41.30
2022-12-18T01:29:04.101Z,41.40
2022-12-18T01:31:34.562Z,36.50
2022-12-18T01:34:06.077Z,42.20
2022-12-18T01:36:38.916Z,41.70
2022-12-18T01:39:12.267Z,35.50
2022-12-18T01:42:02.542Z,42.40
2022-12-18T01:44:57.762Z,38.10
2022-12-18T01:47:31.499Z,29.00
2022-12-18T01:50:04.492Z,22.40
2022-12-18T01:52:33.991Z,35.90
2022-12-18T01:55:07.207Z,38.10
2022-12-18T01:57:36.628Z,39.00
2022-12-18T02:00:10.214Z,35.30
2022-12-18T02:02:46.406Z,38.40
2022-12-18T02:05:48.258Z,36.60
2022-12-18T02:08:58.411Z,31.00
2022-12-18T02:11:38.977Z,33.60
2022-12-18T02:14:16.779Z,30.20
2022-12-18T02:17:05.069Z,40.20
2022-12-18T02:19:57.062Z,38.90
2022-12-18T02:22:32.506Z,40.10
2022-12-18T02:25:17.660Z,39.70
2022-12-18T02:27:48.404Z,39.50
2022-12-18T02:30:17.296Z,44.00
2022-12-18T02:32:52.171Z,35.40
2022-12-18T02:35:27.749Z,36.80
2022-12-18T02:37:58.859Z,25.30
2022-12-18T02:40:29.773Z,22.80
2022-12-18T02:43:15.338Z,12.70
2022-12-18T02:45:50.754Z,8.10
2022-12-18T02:48:24.065Z,15.30
2022-12-18T02:51:19.691Z,26.40
2022-12-18T02:53:59.948Z,25.00
2022-12-18T02:56:43.442Z,25.60
2022-12-18T02:59:23.349Z,10.50
2022-12-18T03:02:25.041Z,20.40
2022-12-18T03:05:01.866Z,23.80
2022-12-18T03:07:47.254Z,19.90
2022-12-18T03:10:21.041Z,20.60
2022-12-18T03:13:00.796Z,17.70
2022-12-18T03:15:36.139Z,17.30
2022-12-18T03:18:14.675Z,20.90
2022-12-18T03:20:45.694Z,22.70
2022-12-18T03:23:26.314Z,20.10
2022-12-18T03:26:04.518Z,10.20
2022-12-18T03:28:43.422Z,17.20
2022-12-18T03:31:15.219Z,24.10
2022-12-18T03:34:12.878Z,21.80
2022-12-18T03:36:45.014Z,23.60
2022-12-18T03:39:14.890Z,19.90
2022-12-18T03:41:53.827Z,24.50
2022-12-18T03:44:50.968Z,19.40
2022-12-18T03:47:54.481Z,23.20
2022-12-18T03:51:03.026Z,19.60
2022-12-18T03:54:01.182Z,13.20
2022-12-18T03:56:38.470Z,12.90
2022-12-18T03:59:09.674Z,10.40
2022-12-18T04:01:46.514Z,21.40
2022-12-18T04:04:19.471Z,23.70
2022-12-18T04:06:50.959Z,19.80
2022-12-18T04:09:21.673Z,16.90
2022-12-18T04:11:50.247Z,20.20
2022-12-18T04:14:18.778Z,22.90
2022-12-18T04:16:49.879Z,21.20
2022-12-18T04:19:19.450Z,15.90
2022-12-18T04:24:44.499Z,19.10
2022-12-18T04:27:22.412Z,22.50
2022-12-18T04:29:52.004Z,22.80
2022-12-18T04:32:20.386Z,25.10
2022-12-18T04:34:49.266Z,16.90
2022-12-18T04:37:17.631Z,18.50
2022-12-18T04:39:46.343Z,13.60
2022-12-18T04:42:20.974Z,14.10
2022-12-18T04:44:49.053Z,13.10
2022-12-18T04:47:17.154Z,16.20
2022-12-18T04:49:46.915Z,14.20
2022-12-18T04:52:15.415Z,21.00
2022-12-18T04:54:43.790Z,16.10
2022-12-18T04:57:12.674Z,20.10
2022-12-18T04:59:42.383Z,14.00
2022-12-18T05:02:10.705Z,20.40
2022-12-18T05:04:40.062Z,20.50
2022-12-18T05:07:08.240Z,21.60
2022-12-18T05:09:36.552Z,23.00
2022-12-18T05:12:04.900Z,27.10
2022-12-18T05:14:33.060Z,19.20
2022-12-18T05:17:01.465Z,25.00
2022-12-18T05:19:29.925Z,24.50
2022-12-18T05:21:58.683Z,24.10
2022-12-18T05:24:26.883Z,24.40
2022-12-18T05:26:55.049Z,26.00
2022-12-18T05:29:23.552Z,13.80
2022-12-18T05:31:51.970Z,17.20
2022-12-18T05:34:20.234Z,24.40
2022-12-18T05:36:48.276Z,19.40
2022-12-18T05:39:16.399Z,12.90
2022-12-18T05:41:44.613Z,9.20
2022-12-18T05:44:12.784Z,21.70
2022-12-18T05:46:44.495Z,25.90
2022-12-18T05:49:12.886Z,33.30
2022-12-18T05:51:41.208Z,26.40
2022-12-18T05:54:09.577Z,24.00
2022-12-18T05:56:38.480Z,28.30
2022-12-18T05:59:06.862Z,21.00
2022-12-18T06:01:35.036Z,18.10
2022-12-18T06:04:03.458Z,14.50
2022-12-18T06:06:32.184Z,22.70
2022-12-18T06:09:00.476Z,35.20
2022-12-18T06:11:28.665Z,25.30
2022-12-18T06:13:59.097Z,27.30
2022-12-18T06:16:29.118Z,30.40
2022-12-18T06:18:58.806Z,32.40
2022-12-18T06:21:29.145Z,21.00
2022-12-18T06:23:57.502Z,24.70
2022-12-18T06:26:28.291Z,35.20
2022-12-18T06:28:57.226Z,36.50
2022-12-18T06:31:26.938Z,28.10
2022-12-18T06:33:55.322Z,18.40
2022-12-18T06:36:23.608Z,25.20
2022-12-18T06:38:51.848Z,25.80
2022-12-18T06:41:23.434Z,27.10
2022-12-18T06:43:55.574Z,25.50
2022-12-18T06:46:26.947Z,25.50
2022-12-18T06:48:55.329Z,28.20
2022-12-18T06:51:25.026Z,20.90
2022-12-18T06:53:53.412Z,34.70
2022-12-18T06:56:21.699Z,31.60
2022-12-18T06:58:51.290Z,29.70
2022-12-18T07:01:20.138Z,29.50
2022-12-18T07:03:52.868Z,22.60
2022-12-18T07:06:23.391Z,19.30
2022-12-18T07:08:53.869Z,15.30
2022-12-18T07:11:22.614Z,21.80
2022-12-18T07:13:51.083Z,21.90
2022-12-18T07:16:25.139Z,15.40
2022-12-18T07:18:56.426Z,22.10
2022-12-18T07:21:25.793Z,19.10
2022-12-18T07:23:54.085Z,14.60
2022-12-18T07:26:23.678Z,16.30
2022-12-18T07:28:56.005Z,15.50
2022-12-18T07:31:25.653Z,16.90
2022-12-18T07:33:55.102Z,22.70
2022-12-18T07:36:24.324Z,9.00
2022-12-18T07:38:56.185Z,15.10
2022-12-18T07:41:25.191Z,20.20
2022-12-18T07:43:54.369Z,19.20
2022-12-18T07:46:23.863Z,19.80
2022-12-18T07:48:52.243Z,22.20
2022-12-18T07:51:21.150Z,19.40
2022-12-18T07:53:52.503Z,23.60
2022-12-18T07:56:31.274Z,22.20
2022-12-18T07:59:03.834Z,15.70
2022-12-18T08:01:32.418Z,16.00
2022-12-18T08:04:00.975Z,15.00
2022-12-18T08:06:30.072Z,9.40
2022-12-18T08:08:58.759Z,19.50
2022-12-18T08:11:28.879Z,17.40
2022-12-18T08:13:58.782Z,19.50
2022-12-18T08:16:28.387Z,17.80
2022-12-18T08:18:57.285Z,15.30
2022-12-18T08:21:29.122Z,16.40
2022-12-18T08:24:00.176Z,20.30
2022-12-18T08:26:31.649Z,14.10
2022-12-18T08:29:02.492Z,20.50
2022-12-18T08:31:33.025Z,22.10
2022-12-18T08:34:01.878Z,19.80
2022-12-18T08:36:30.367Z,20.90
2022-12-18T08:38:59.486Z,22.70
2022-12-18T08:41:29.368Z,10.10
2022-12-18T08:44:17.195Z,15.40
2022-12-18T08:46:46.130Z,18.70
2022-12-18T08:49:14.692Z,15.20
2022-12-18T08:51:43.163Z,20.40
2022-12-18T08:54:17.822Z,19.60
2022-12-18T08:56:46.168Z,26.10
2022-12-18T08:59:19.956Z,26.20
2022-12-18T09:01:49.649Z,17.60
2022-12-18T09:04:18.287Z,19.60
2022-12-18T09:06:46.678Z,19.50
2022-12-18T09:09:15.345Z,18.40
2022-12-18T09:11:44.239Z,19.30
2022-12-18T09:14:16.983Z,22.00
2022-12-18T09:16:46.960Z,24.70
2022-12-18T09:19:15.503Z,20.40
2022-12-18T09:21:47.987Z,22.70
2022-12-18T09:24:17.498Z,20.70
2022-12-18T09:26:47.325Z,18.70
2022-12-18T09:29:18.945Z,26.70
2022-12-18T09:31:48.350Z,25.70
2022-12-18T09:34:18.152Z,21.90
2022-12-18T09:36:46.401Z,16.80
2022-12-18T09:39:15.944Z,22.90
2022-12-18T09:41:57.021Z,25.30
2022-12-18T09:44:32.465Z,23.80
2022-12-18T09:47:18.557Z,13.00
2022-12-18T09:49:50.932Z,16.20
2022-12-18T09:52:45.514Z,19.40
2022-12-18T09:55:35.115Z,26.30
2022-12-18T09:58:11.595Z,20.70
2022-12-18T10:00:40.144Z,22.80
2022-12-18T10:03:14.275Z,20.70
2022-12-18T10:05:45.796Z,23.50
2022-12-18T10:08:30.691Z,22.50
2022-12-18T10:11:10.091Z,25.30
2022-12-18T10:14:02.651Z,13.50
2022-12-18T10:16:42.304Z,29.10
2022-12-18T10:19:19.284Z,29.30
2022-12-18T10:22:10.055Z,18.20
2022-12-18T10:24:51.131Z,20.20
2022-12-18T10:27:24.838Z,26.80
2022-12-18T10:29:54.503Z,26.70
2022-12-18T10:32:26.639Z,23.20
2022-12-18T10:35:00.805Z,28.70
2022-12-18T10:37:31.728Z,25.30
2022-12-18T10:40:19.910Z,27.00
2022-12-18T10:43:15.976Z,29.20
2022-12-18T10:46:03.841Z,24.40
2022-12-18T10:48:35.843Z,28.10
2022-12-18T10:51:13.540Z,18.00
2022-12-18T10:53:44.681Z,21.50
2022-12-18T10:56:13.977Z,22.30
2022-12-18T10:58:44.268Z,29.30
2022-12-18T11:01:19.153Z,26.30
2022-12-18T11:04:03.013Z,26.80
2022-12-18T11:06:32.578Z,28.00
2022-12-18T11:09:22.142Z,28.60
2022-12-18T11:11:57.207Z,24.20
2022-12-18T11:14:35.783Z,25.90
2022-12-18T11:19:59.469Z,25.40
2022-12-18T11:22:35.251Z,20.40
2022-12-18T11:25:34.664Z,32.10
2022-12-18T11:28:26.381Z,28.00
2022-12-18T11:31:20.646Z,22.20
2022-12-18T11:34:28.163Z,17.90
2022-12-18T11:36:54.763Z,21.80
2022-12-18T11:39:35.973Z,31.00
2022-12-18T11:42:41.222Z,24.30
2022-12-18T11:45:33.479Z,24.00
2022-12-18T11:48:14.226Z,26.30
2022-12-18T11:50:57.451Z,23.50
2022-12-18T11:53:28.122Z,28.80
2022-12-18T11:56:15.987Z,28.50
2022-12-18T11:58:52.389Z,24.10
2022-12-18T12:01:27.179Z,23.50
2022-12-18T12:04:34.264Z,26.40
2022-12-18T12:07:25.106Z,28.40
2022-12-18T12:10:19.720Z,29.90
2022-12-18T12:13:27.084Z,29.40
2022-12-18T12:16:22.196Z,26.50
2022-12-18T12:19:20.269Z,22.20
2022-12-18T12:22:04.610Z,14.90
2022-12-18T12:25:00.288Z,18.10
2022-12-18T12:27:48.802Z,21.30
2022-12-18T12:30:47.846Z,18.60
2022-12-18T12:33:38.396Z,23.40
2022-12-18T12:36:07.278Z,23.00
2022-12-18T12:38:51.927Z,18.90
2022-12-18T12:41:49.456Z,17.70
2022-12-18T12:44:24.752Z,21.30
2022-12-18T12:46:56.193Z,23.60
2022-12-18T12:49:30.144Z,15.40
2022-12-18T12:52:13.206Z,19.10
2022-12-18T12:54:43.197Z,17.30
2022-12-18T12:57:27.906Z,15.00
2022-12-18T13:00:04.471Z,22.30
2022-12-18T13:02:57.848Z,20.00
2022-12-18T13:05:40.354Z,18.20
2022-12-18T13:08:12.529Z,19.60
2022-12-18T13:10:43.351Z,22.30
2022-12-18T13:13:17.269Z,22.30
2022-12-18T13:16:09.489Z,24.50
2022-12-18T13:18:39.204Z,27.40
2022-12-18T13:21:22.349Z,27.00
2022-12-18T13:23:51.629Z,19.70
2022-12-18T13:26:27.934Z,26.60
2022-12-18T13:28:59.557Z,20.10
2022-12-18T13:31:31.289Z,24.90
2022-12-18T13:34:26.696Z,23.70
2022-12-18T13:37:00.755Z,28.40
2022-12-18T13:39:36.681Z,19.10
2022-12-18T13:42:08.751Z,21.50
2022-12-18T13:44:44.332Z,21.30
2022-12-18T13:47:35.959Z,19.00
2022-12-18T13:50:24.983Z,21.50
2022-12-18T13:52:54.493Z,22.50
2022-12-18T13:55:24.670Z,19.70
2022-12-18T13:58:06.204Z,28.40
2022-12-18T14:00:35.573Z,20.90
2022-12-18T14:03:27.601Z,25.20
2022-12-18T14:06:04.690Z,28.20
2022-12-18T14:08:41.083Z,26.90
2022-12-18T14:11:26.678Z,21.20
2022-12-18T14:13:55.859Z,18.40
2022-12-18T14:16:24.474Z,19.90
2022-12-18T14:19:10.117Z,19.10
2022-12-18T14:21:50.972Z,17.00
2022-12-18T14:24:23.615Z,23.10
2022-12-18T14:26:54.018Z,24.10
2022-12-18T14:29:23.755Z,24.40
2022-12-18T14:32:18.536Z,25.20
2022-12-18T14:34:55.893Z,24.10
2022-12-18T14:37:26.760Z,29.50
2022-12-18T14:40:02.167Z,32.40
2022-12-18T14:42:35.144Z,23.40
2022-12-18T14:45:44.352Z,31.90
2022-12-18T14:48:26.970Z,29.50
2022-12-18T14:51:09.221Z,33.00
2022-12-18T14:53:45.431Z,20.20
2022-12-18T14:56:22.194Z,22.30
2022-12-18T14:58:54.323Z,27.20
2022-12-18T15:01:29.953Z,22.20
2022-12-18T15:04:01.150Z,26.50
2022-12-18T15:06:31.784Z,24.10
2022-12-18T15:09:02.585Z,19.50
2022-12-18T15:11:47.595Z,29.90
2022-12-18T15:14:30.982Z,25.70
2022-12-18T15:17:02.197Z,23.40
2022-12-18T15:19:46.428Z,21.00
2022-12-18T15:22:29.409Z,30.70
2022-12-18T15:25:00.153Z,24.30
2022-12-18T15:27:39.675Z,29.60
2022-12-18T15:30:11.731Z,40.60
2022-12-18T15:32:42.072Z,19.10
2022-12-18T15:35:12.599Z,32.10
2022-12-18T15:37:42.954Z,30.20
2022-12-18T15:40:20.463Z,34.20
2022-12-18T15:43:11.758Z,31.80
2022-12-18T15:45:41.028Z,19.70
2022-12-18T15:48:22.032Z,29.10
2022-12-18T15:50:58.167Z,30.00
2022-12-18T15:53:32.090Z,25.00
2022-12-18T15:56:19.882Z,30.20
2022-12-18T15:58:49.171Z,32.60
2022-12-18T16:01:18.687Z,24.40
2022-12-18T16:03:47.439Z,22.30
2022-12-18T16:06:16.798Z,25.70
2022-12-18T16:08:45.855Z,21.50
2022-12-18T16:11:44.696Z,28.70
2022-12-18T16:14:28.906Z,19.20
2022-12-18T16:17:03.687Z,26.20
2022-12-18T16:19:32.630Z,18.30
2022-12-18T16:22:01.529Z,18.20
2022-12-18T16:24:34.818Z,17.80
2022-12-18T16:27:04.203Z,21.00
2022-12-18T16:29:34.369Z,16.80
2022-12-18T16:32:04.026Z,21.20
2022-12-18T16:34:36.183Z,19.50
2022-12-18T16:37:07.993Z,18.10
2022-12-18T16:39:38.068Z,18.00
2022-12-18T16:42:21.497Z,16.40
2022-12-18T16:44:50.783Z,25.80
2022-12-18T16:47:20.808Z,23.20
2022-12-18T16:49:53.135Z,22.50
2022-12-18T16:52:22.304Z,24.30
2022-12-18T16:54:51.003Z,19.70
2022-12-18T16:57:23.285Z,15.40
2022-12-18T16:59:54.107Z,11.90
2022-12-18T17:02:25.681Z,24.70
2022-12-18T17:04:57.851Z,24.20
2022-12-18T17:07:28.439Z,23.90
2022-12-18T17:09:57.879Z,23.00
2022-12-18T17:12:27.176Z,17.60
2022-12-18T17:14:55.850Z,23.20
2022-12-18T17:17:24.439Z,21.30
2022-12-18T17:19:53.012Z,24.40
2022-12-18T17:22:23.601Z,21.00
2022-12-18T17:24:52.243Z,22.70
2022-12-18T17:27:20.982Z,17.60
2022-12-18T17:29:49.670Z,15.00
2022-12-18T17:32:19.567Z,20.00
2022-12-18T17:34:48.713Z,24.40
2022-12-18T17:37:17.392Z,24.50
2022-12-18T17:39:46.714Z,27.90
2022-12-18T17:42:16.197Z,23.90
2022-12-18T17:44:45.615Z,28.80
2022-12-18T17:47:16.224Z,24.70
2022-12-18T17:49:45.430Z,27.20
2022-12-18T17:52:14.433Z,29.00
2022-12-18T17:54:44.433Z,17.70
2022-12-18T17:57:12.920Z,11.00
2022-12-18T17:59:41.641Z,22.70
2022-12-18T18:02:12.326Z,31.80
2022-12-18T18:04:40.836Z,19.70
2022-12-18T18:07:10.336Z,20.60
2022-12-18T18:09:39.277Z,20.10
2022-12-18T18:12:27.868Z,25.40
2022-12-18T18:14:56.873Z,17.40
2022-12-18T18:17:25.551Z,16.10
2022-12-18T18:19:54.549Z,14.70
2022-12-18T18:22:25.002Z,24.80
2022-12-18T18:24:53.950Z,22.30
2022-12-18T18:27:22.635Z,18.50
2022-12-18T18:29:51.840Z,15.50
2022-12-18T18:32:21.669Z,45.50
2022-12-18T18:34:51.591Z,45.10
2022-12-18T18:37:20.575Z,26.10
2022-12-18T18:39:49.262Z,26.90
2022-12-18T18:42:17.743Z,37.00
2022-12-18T18:44:49.065Z,21.40
2022-12-18T18:47:17.975Z,25.30
2022-12-18T18:49:46.654Z,27.20
2022-12-18T18:52:15.617Z,24.40
2022-12-18T18:55:10.763Z,22.50
2022-12-18T18:57:34.215Z,22.40
2022-12-18T19:00:03.437Z,19.00
2022-12-18T19:02:32.468Z,26.80
2022-12-18T19:05:02.439Z,27.20
2022-12-18T19:07:31.937Z,29.20
2022-12-18T19:10:05.200Z,16.40
2022-12-18T19:12:53.796Z,27.50
2022-12-18T19:15:24.029Z,17.80
2022-12-18T19:17:54.029Z,30.20
2022-12-18T19:20:23.215Z,28.00
2022-12-18T19:22:55.485Z,31.60
2022-12-18T19:25:40.229Z,29.50
2022-12-18T19:28:21.603Z,27.00
2022-12-18T19:30:56.351Z,29.30
2022-12-18T19:33:43.120Z,22.30
2022-12-18T19:36:14.954Z,19.20
2022-12-18T19:38:45.250Z,16.10
2022-12-18T19:41:15.987Z,21.10
2022-12-18T19:43:47.292Z,32.40
2022-12-18T19:46:20.567Z,22.90
2022-12-18T19:48:51.159Z,39.70
2022-12-18T19:51:28.618Z,22.70
2022-12-18T19:54:01.178Z,37.50
2022-12-18T19:56:34.130Z,38.20
2022-12-18T19:59:05.882Z,35.20
2022-12-18T20:01:37.580Z,41.90
2022-12-18T20:04:08.554Z,22.90
2022-12-18T20:06:54.845Z,45.90
2022-12-18T20:09:26.255Z,42.30
2022-12-18T20:11:56.780Z,38.00
2022-12-18T20:14:28.596Z,33.80
2022-12-18T20:17:00.425Z,40.50
2022-12-18T20:19:32.611Z,30.50
2022-12-18T20:22:04.410Z,35.50
2022-12-18T20:24:35.985Z,33.70
2022-12-18T20:27:14.034Z,49.30
2022-12-18T20:29:50.645Z,45.40
2022-12-18T20:32:21.666Z,36.90
2022-12-18T20:34:53.467Z,26.30
2022-12-18T20:37:25.655Z,40.00
2022-12-18T20:39:57.977Z,20.90
2022-12-18T20:42:28.912Z,14.20
2022-12-18T20:44:59.747Z,22.90
2022-12-18T20:47:31.614Z,26.50
2022-12-18T20:50:04.899Z,31.10
2022-12-18T20:52:35.867Z,30.30
2022-12-18T20:55:08.156Z,35.70
2022-12-18T20:57:39.426Z,28.70
2022-12-18T21:00:10.051Z,38.60
2022-12-18T21:02:40.519Z,42.30
2022-12-18T21:05:10.190Z,37.00
2022-12-18T21:07:40.183Z,37.80
2022-12-18T21:10:10.764Z,42.60
2022-12-18T21:13:01.711Z,46.90
2022-12-18T21:15:34.248Z,39.60
2022-12-18T21:18:03.851Z,46.50
2022-12-18T21:20:33.724Z,45.50
2022-12-18T21:23:16.008Z,42.70
2022-12-18T21:25:47.577Z,46.50
2022-12-18T21:28:23.303Z,45.30
2022-12-18T21:30:52.724Z,39.90
2022-12-18T21:33:21.423Z,43.00
2022-12-18T21:35:50.274Z,32.30
2022-12-18T21:38:19.685Z,35.30
2022-12-18T21:40:49.393Z,49.20
2022-12-18T21:43:37.564Z,39.30
2022-12-18T21:46:07.794Z,39.60
2022-12-18T21:48:40.903Z,38.40
2022-12-18T21:51:10.777Z,43.10
2022-12-18T21:53:39.521Z,36.50
2022-12-18T21:56:08.420Z,46.00
2022-12-18T21:58:37.882Z,47.80
2022-12-18T22:01:06.752Z,50.30
2022-12-18T22:03:36.532Z,56.70
2022-12-18T22:06:09.544Z,39.00
2022-12-18T22:08:42.595Z,52.80
2022-12-18T22:11:17.714Z,47.00
2022-12-18T22:13:50.760Z,50.20
2022-12-18T22:16:20.586Z,44.20
2022-12-18T22:18:51.049Z,39.70
2022-12-18T22:21:35.533Z,42.80
2022-12-18T22:24:10.681Z,44.70
2022-12-18T22:26:40.393Z,44.40
2022-12-18T22:29:47.972Z,40.90
2022-12-18T22:32:21.434Z,46.20
2022-12-18T22:35:06.926Z,49.30
2022-12-18T22:37:38.488Z,42.70
2022-12-18T22:40:07.791Z,44.00
2022-12-18T22:42:38.722Z,48.40
2022-12-18T22:45:09.270Z,37.70
2022-12-18T22:47:37.631Z,47.60
2022-12-18T22:50:07.648Z,40.90
2022-12-18T22:52:36.545Z,31.10
2022-12-18T22:55:07.668Z,37.40
2022-12-18T22:57:36.672Z,32.20
2022-12-18T23:00:09.730Z,33.10
2022-12-18T23:02:39.207Z,39.30
2022-12-18T23:05:09.403Z,14.90
2022-12-18T23:07:38.270Z,34.30
2022-12-18T23:10:07.985Z,31.80
2022-12-18T23:12:38.538Z,29.00
2022-12-18T23:15:08.434Z,31.90
2022-12-18T23:17:36.920Z,34.90
2022-12-18T23:20:06.737Z,29.30
2022-12-18T23:22:35.027Z,32.30
2022-12-18T23:25:03.597Z,35.20
2022-12-18T23:27:35.254Z,35.50
2022-12-18T23:30:04.850Z,39.60
2022-12-18T23:32:38.890Z,24.00
2022-12-18T23:35:07.865Z,43.40
2022-12-18T23:38:00.151Z,39.70
2022-12-18T23:40:27.870Z,47.30
2022-12-18T23:42:56.961Z,39.50
2022-12-18T23:45:25.075Z,42.60
2022-12-18T23:47:53.611Z,40.30
2022-12-18T23:50:23.760Z,42.10
2022-12-18T23:53:04.678Z,42.60
2022-12-18T23:55:40.870Z,42.00
2022-12-18T23:58:22.159Z,49.10
